Stations météo

Publicité
Bramham, Grande-Bretagne (99077): Température de l'air & dewpoint: 13.02.2020 07:00:00 - 19.02.2020 07:00:00 (GMT)Bramham, Grande-Bretagne (99077): Vitesse du vent & gusts: 13.02.2020 07:00:00 - 19.02.2020 07:00:00 (GMT)Bramham, Grande-Bretagne (99077): Direction du vent: 13.02.2020 07:00:00 - 19.02.2020 07:00:00 (GMT)Bramham, Grande-Bretagne (99077): Quantités de précipitations: 13.02.2020 07:00:00 - 19.02.2020 07:00:00 (GMT)
Date & Time tt [°C] td [°C] ff [km/h] ff [knt] fx [km/h] fx [knt] dd rr [mm]
19.02.2020 07:00:00 - - - - - - - -
19.02.2020 06:00:00 4,3 0,6 13 7 - - W -
19.02.2020 05:00:00 4,3 0,3 21 11 - - WSW -
19.02.2020 04:00:00 4,3 0,0 31 17 54 29 W 0,0
19.02.2020 03:00:00 4,3 0,5 26 14 - - W 0,0
19.02.2020 02:00:00 4,3 0,4 29 16 50 27 W 0,0
19.02.2020 01:00:00 4,1 0,3 34 18 - - W 0,0
19.02.2020 00:00:00 4,1 0,4 29 16 57 31 W 0,0
18.02.2020 23:00:00 4,5 0,1 37 20 59 32 W 0,0
18.02.2020 22:00:00 4,5 0,5 29 16 50 27 W 0,0
18.02.2020 21:00:00 4,6 0,8 22 12 - - W 0,0
18.02.2020 20:00:00 4,9 0,7 24 13 - - W 0,0
18.02.2020 19:00:00 5,2 0,9 24 13 - - WSW 0,0
18.02.2020 18:00:00 5,9 1,6 35 19 54 29 W 0,0
18.02.2020 17:00:00 6,0 2,7 24 13 67 36 WSW 0,8
18.02.2020 16:00:00 7,7 3,5 31 17 55 30 WSW 0,0
18.02.2020 15:00:00 7,4 3,8 37 20 68 37 WSW 0,0
18.02.2020 14:00:00 8,8 2,7 37 20 70 38 SW 0,0
18.02.2020 13:00:00 8,7 2,5 37 20 59 32 WSW 0,0
18.02.2020 12:00:00 8,4 3,0 28 15 63 34 WSW 0,0
18.02.2020 11:00:00 7,6 3,6 34 18 54 29 WSW 0,0
18.02.2020 10:00:00 6,9 3,0 28 15 54 29 SW -
18.02.2020 09:00:00 5,9 1,9 26 14 50 27 SW 0,0
18.02.2020 08:00:00 4,6 1,1 22 12 - - SSW -
18.02.2020 07:00:00 4,8 1,1 22 12 - - SSW 0,0
18.02.2020 06:00:00 5,0 1,2 28 15 - - SW -
18.02.2020 05:00:00 4,7 1,3 24 13 - - SW -
18.02.2020 04:00:00 5,1 1,2 21 11 54 29 WSW 0,0
18.02.2020 03:00:00 4,8 1,0 28 15 50 27 WSW -
18.02.2020 02:00:00 5,0 0,7 31 17 65 35 WSW -
18.02.2020 01:00:00 5,0 0,8 34 18 57 31 WSW 0,0
18.02.2020 00:00:00 5,0 0,7 22 12 52 28 WSW -
17.02.2020 23:00:00 5,3 0,5 35 19 59 32 WSW 0,2
17.02.2020 22:00:00 4,3 1,0 28 15 54 29 WSW 0,0
17.02.2020 21:00:00 4,1 0,7 21 11 59 32 WSW 0,2
17.02.2020 20:00:00 5,9 -0,2 34 18 59 32 WSW 0,0
17.02.2020 19:00:00 5,9 1,2 26 14 57 31 WSW 0,0
17.02.2020 18:00:00 5,7 1,6 34 18 72 39 WSW 0,2
17.02.2020 17:00:00 7,9 1,8 35 19 57 31 WSW 0,0
17.02.2020 16:00:00 8,4 2,1 35 19 63 34 W 0,0
17.02.2020 15:00:00 8,7 3,2 31 17 57 31 WSW 0,0
17.02.2020 14:00:00 8,7 3,5 28 15 61 33 WSW 0,0
17.02.2020 13:00:00 8,6 3,7 29 16 54 29 WSW 0,0
17.02.2020 12:00:00 8,4 4,1 26 14 52 28 SW 0,0
17.02.2020 11:00:00 8,0 3,8 35 19 57 31 WSW 0,0
17.02.2020 10:00:00 6,9 3,6 29 16 52 28 SW 0,0
17.02.2020 09:00:00 5,4 2,8 26 14 63 34 SSW 0,0
17.02.2020 08:00:00 5,6 2,0 31 17 55 30 SSW 0,0
17.02.2020 07:00:00 5,3 1,5 37 20 55 30 SSW 0,0
17.02.2020 06:00:00 5,4 0,3 35 19 70 38 SSW 0,0
17.02.2020 05:00:00 5,5 1,1 39 21 57 31 SSW 0,0
17.02.2020 04:00:00 5,2 1,1 34 18 74 40 SSW 0,0
17.02.2020 03:00:00 6,2 0,0 44 24 70 38 SW 0,0
17.02.2020 02:00:00 5,7 0,9 42 23 70 38 SSW 0,0
17.02.2020 01:00:00 6,0 -0,3 37 20 63 34 SSW 0,0
17.02.2020 00:00:00 5,8 0,1 34 18 67 36 SW 0,0
16.02.2020 23:00:00 5,7 0,9 41 22 63 34 SW 0,0
16.02.2020 22:00:00 5,2 1,3 29 16 59 32 SW 0,0
16.02.2020 21:00:00 5,6 1,5 37 20 65 35 SW 0,0
16.02.2020 20:00:00 5,5 1,3 44 24 67 36 SW 0,0
16.02.2020 19:00:00 5,8 1,3 42 23 83 45 SSW 0,6
16.02.2020 18:00:00 7,6 0,6 37 20 65 35 SW 0,0
16.02.2020 17:00:00 6,9 1,3 35 19 55 30 SW 0,0
16.02.2020 16:00:00 7,2 0,8 44 24 65 35 SW 0,0
16.02.2020 15:00:00 7,6 4,1 24 13 80 43 SSW 1,4
16.02.2020 14:00:00 8,1 3,0 28 15 78 42 SSW 0,0
16.02.2020 13:00:00 8,0 2,2 31 17 55 30 SW 0,0
16.02.2020 12:00:00 7,8 3,5 29 16 55 30 SW 0,0
16.02.2020 11:00:00 7,8 4,1 22 12 - - SSW 0,0
16.02.2020 10:00:00 6,7 4,7 22 12 67 36 SW 0,4
16.02.2020 09:00:00 6,2 3,2 41 22 68 37 SW 0,8
16.02.2020 08:00:00 4,8 2,5 42 23 78 42 WSW 1,0
16.02.2020 07:00:00 8,2 4,7 44 24 85 46 SSW 0,2
16.02.2020 06:00:00 8,6 5,6 50 27 78 42 SW 0,4
16.02.2020 05:00:00 8,6 6,6 39 21 74 40 SW 1,0
16.02.2020 04:00:00 9,2 7,0 37 20 65 35 SW 0,6
16.02.2020 03:00:00 9,6 7,7 41 22 59 32 SSW 2,0
16.02.2020 02:00:00 9,5 8,1 31 17 52 28 SSW 2,2
16.02.2020 01:00:00 10,0 8,1 34 18 50 27 SSW 1,8
16.02.2020 00:00:00 9,2 8,4 16 9 - - S 3,0
15.02.2020 23:00:00 9,6 6,6 35 19 70 38 SW 0,6
15.02.2020 22:00:00 10,8 7,3 35 19 70 38 SW 0,2
15.02.2020 21:00:00 10,9 7,7 31 17 61 33 SW 0,0
15.02.2020 20:00:00 10,6 7,9 48 26 83 45 WSW 2,6
15.02.2020 19:00:00 11,7 10,3 46 25 68 37 S 0,8
15.02.2020 18:00:00 11,2 9,9 41 22 70 38 S 0,4
15.02.2020 17:00:00 11,7 9,0 42 23 68 37 S 0,0
15.02.2020 16:00:00 11,2 8,5 39 21 74 40 S 0,4
15.02.2020 15:00:00 12,3 8,6 41 22 65 35 S 0,0
15.02.2020 14:00:00 11,4 9,4 37 20 57 31 S 0,2
15.02.2020 13:00:00 10,9 9,9 29 16 50 27 S 1,2
15.02.2020 12:00:00 11,2 9,8 39 21 61 33 S 0,2
15.02.2020 11:00:00 10,9 10,3 34 18 48 26 S 0,4
15.02.2020 10:00:00 9,2 9,1 24 13 - - SSE 1,2
15.02.2020 09:00:00 7,4 7,4 24 13 - - SSE 0,0
15.02.2020 08:00:00 6,3 6,3 18 10 - - SSE 0,0
15.02.2020 07:00:00 5,9 5,7 15 8 - - ESE 0,2
15.02.2020 06:00:00 5,0 4,7 11 6 - - SE 0,0
15.02.2020 05:00:00 5,2 4,4 18 10 - - SE 0,0
15.02.2020 04:00:00 4,7 3,5 13 7 - - SSE 0,0
15.02.2020 03:00:00 5,9 4,5 15 8 - - S 0,0
15.02.2020 02:00:00 4,9 3,9 11 6 - - SSE 0,0
15.02.2020 01:00:00 6,6 4,6 11 6 - - S 0,0
15.02.2020 00:00:00 8,4 5,4 15 8 - - S 0,0
14.02.2020 23:00:00 8,7 5,3 18 10 - - SSW 0,0
14.02.2020 22:00:00 8,5 5,5 18 10 - - SSW 0,0
14.02.2020 21:00:00 8,8 5,8 16 9 - - S 0,0
14.02.2020 20:00:00 8,7 5,8 16 9 - - S 0,0
14.02.2020 19:00:00 9,2 6,2 26 14 - - SSW 0,0
14.02.2020 18:00:00 9,2 6,7 29 16 - - SSW 0,0
14.02.2020 17:00:00 9,6 6,7 29 16 54 29 SSW 0,0
14.02.2020 16:00:00 9,8 7,5 31 17 46 25 SSW 0,4
14.02.2020 15:00:00 9,3 6,4 34 18 48 26 SSW 0,0
14.02.2020 14:00:00 8,9 5,5 39 21 59 32 S 0,0
14.02.2020 13:00:00 6,9 4,0 35 19 54 29 S 0,0
14.02.2020 12:00:00 7,1 3,0 28 15 - - S 0,0
14.02.2020 11:00:00 5,9 3,3 22 12 - - S 0,0
14.02.2020 10:00:00 4,9 2,8 29 16 48 26 S 0,0
14.02.2020 09:00:00 2,7 1,9 24 13 - - SSE 0,0
14.02.2020 08:00:00 2,3 1,1 22 12 - - SE 0,0
14.02.2020 07:00:00 2,2 1,4 13 7 - - SSE 0,0
14.02.2020 06:00:00 1,6 0,8 9 5 - - SSE 0,0
14.02.2020 05:00:00 1,7 0,9 9 5 - - SSE 0,0
14.02.2020 04:00:00 2,2 1,3 5 3 - - SW 0,0
14.02.2020 03:00:00 3,1 2,3 8 4 - - WSW 0,0
14.02.2020 02:00:00 3,6 2,4 8 4 - - WSW 0,0
14.02.2020 01:00:00 4,0 2,9 8 4 - - WNW 0,0
14.02.2020 00:00:00 3,8 2,2 8 4 - - W 0,0
13.02.2020 23:00:00 4,6 2,9 8 4 - - W 0,0
13.02.2020 22:00:00 4,9 3,2 11 6 - - W 0,0
13.02.2020 21:00:00 4,5 3,2 13 7 - - WNW 0,0
13.02.2020 20:00:00 4,8 3,3 15 8 - - NW 0,0
13.02.2020 19:00:00 5,3 3,6 21 11 - - NNW 0,0
13.02.2020 18:00:00 5,1 3,5 16 9 - - WNW 0,0
13.02.2020 17:00:00 5,4 3,3 24 13 - - NW 0,0
13.02.2020 16:00:00 5,5 2,9 26 14 - - NW 0,0
13.02.2020 15:00:00 5,4 3,4 22 12 - - NW 0,0
13.02.2020 14:00:00 7,4 4,1 24 13 - - WNW 0,0
13.02.2020 13:00:00 7,0 4,3 18 10 - - WNW 0,0
13.02.2020 12:00:00 7,0 4,8 11 6 - - WNW 0,0
13.02.2020 11:00:00 6,8 4,4 9 5 - - WSW 0,0
13.02.2020 10:00:00 5,7 4,1 9 5 - - SSW 0,0
13.02.2020 09:00:00 3,9 3,5 5 3 - - ENE 0,2
13.02.2020 08:00:00 3,9 3,5 21 11 - - SSE 0,2
13.02.2020 07:00:00 4,0 3,4 26 14 54 29 SE 0,6

tt = Température de l'air
td = dewpoint
ff = Vitesse du vent
fx = gusts
dd = Direction du vent
rr = Quantités de précipitations

stations d'obs. à proximité